createdAt,value
2019-02-14T00:04:53.236Z,69.15
2019-02-14T00:09:59.829Z,70.03
2019-02-14T00:15:09.268Z,69.71
2019-02-14T00:20:15.358Z,70.72
2019-02-14T00:25:21.497Z,69.95
2019-02-14T00:30:27.547Z,69.08
2019-02-14T00:35:33.577Z,68.24
2019-02-14T00:40:39.226Z,68.40
2019-02-14T00:45:45.884Z,69.10
2019-02-14T00:50:52.542Z,68.85
2019-02-14T00:55:58.548Z,68.70
2019-02-14T01:01:04.483Z,66.86
2019-02-14T01:06:11.747Z,68.96
2019-02-14T01:11:18.373Z,68.98
2019-02-14T01:16:24.108Z,67.19
2019-02-14T01:21:29.763Z,68.60
2019-02-14T01:26:35.703Z,68.71
2019-02-14T01:31:41.598Z,68.22
2019-02-14T01:36:47.188Z,69.38
2019-02-14T01:41:53.165Z,69.41
2019-02-14T01:46:59.463Z,67.80
2019-02-14T01:52:11.131Z,69.48
2019-02-14T01:57:17.335Z,68.68
2019-02-14T02:02:23.273Z,69.24
2019-02-14T02:07:29.143Z,67.54
2019-02-14T02:12:34.913Z,67.93
2019-02-14T02:17:41.336Z,67.45
2019-02-14T02:22:47.176Z,66.94
2019-02-14T02:27:53.621Z,67.27
2019-02-14T02:32:59.372Z,67.95
2019-02-14T02:38:06.938Z,67.43
2019-02-14T02:43:12.778Z,65.56
2019-02-14T02:48:18.694Z,66.62
2019-02-14T02:53:24.989Z,67.55
2019-02-14T02:58:30.794Z,68.31
2019-02-14T03:03:36.781Z,67.08
2019-02-14T03:08:42.427Z,66.35
2019-02-14T03:13:48.472Z,66.35
2019-02-14T03:18:54.342Z,66.59
2019-02-14T03:24:00.251Z,65.88
2019-02-14T03:29:05.814Z,64.24
2019-02-14T03:34:11.423Z,63.64
2019-02-14T03:39:18.688Z,64.01
2019-02-14T03:44:24.457Z,64.33
2019-02-14T03:49:30.069Z,64.82
2019-02-14T03:54:35.847Z,65.08
2019-02-14T03:59:42.020Z,64.13
2019-02-14T04:04:49.213Z,64.33
2019-02-14T04:09:55.515Z,64.78
2019-02-14T04:15:01.118Z,63.62
2019-02-14T04:20:10.093Z,64.19
2019-02-14T04:25:16.428Z,64.75
2019-02-14T04:30:22.310Z,65.59
2019-02-14T04:35:28.151Z,65.23
2019-02-14T04:40:33.956Z,64.61
2019-02-14T04:45:41.280Z,64.90
2019-02-14T04:50:47.027Z,65.28
2019-02-14T04:55:54.533Z,64.80
2019-02-14T05:01:00.106Z,64.24
2019-02-14T05:06:06.388Z,63.76
2019-02-14T05:11:13.057Z,63.51
2019-02-14T05:16:18.672Z,64.08
2019-02-14T05:21:24.606Z,62.59
2019-02-14T05:26:30.701Z,62.42
2019-02-14T05:31:37.599Z,62.12
2019-02-14T05:36:44.104Z,60.40
2019-02-14T05:41:50.134Z,61.18
2019-02-14T05:46:55.733Z,60.82
2019-02-14T05:52:01.430Z,61.66
2019-02-14T05:57:07.363Z,62.29
2019-02-14T06:02:13.305Z,62.50
2019-02-14T06:07:20.540Z,62.07
2019-02-14T06:12:26.698Z,63.09
2019-02-14T06:17:34.274Z,62.79
2019-02-14T06:22:41.234Z,61.61
2019-02-14T06:27:47.025Z,62.64
2019-02-14T06:32:52.956Z,62.54
2019-02-14T06:37:59.182Z,61.72
2019-02-14T06:43:05.420Z,60.23
2019-02-14T06:48:10.983Z,59.72
2019-02-14T06:53:18.110Z,61.36
2019-02-14T06:58:24.873Z,61.79
2019-02-14T07:03:31.367Z,61.31
2019-02-14T07:08:37.258Z,62.25
2019-02-14T07:13:43.911Z,60.67
2019-02-14T07:18:50.182Z,60.94
2019-02-14T07:23:58.520Z,61.23
2019-02-14T07:29:04.551Z,61.39
2019-02-14T07:34:11.997Z,61.11
2019-02-14T07:39:18.398Z,62.78
2019-02-14T07:44:24.873Z,61.23
2019-02-14T07:49:31.068Z,60.16
2019-02-14T07:54:36.910Z,60.00
2019-02-14T07:59:43.117Z,59.70
2019-02-14T08:04:49.536Z,58.45
2019-02-14T08:09:55.884Z,60.14
2019-02-14T08:15:01.781Z,60.07
2019-02-14T08:20:14.173Z,58.93
2019-02-14T08:25:21.684Z,58.75
2019-02-14T08:30:28.829Z,59.80
2019-02-14T08:35:35.231Z,59.37
2019-02-14T08:40:41.233Z,61.17
2019-02-14T08:45:46.978Z,60.52
2019-02-14T08:50:52.633Z,60.38
2019-02-14T08:55:59.334Z,58.29
2019-02-14T09:01:05.552Z,59.89
2019-02-14T09:06:11.834Z,59.54
2019-02-14T09:11:17.972Z,60.14
2019-02-14T09:16:24.264Z,59.05
2019-02-14T09:21:30.132Z,58.91
2019-02-14T09:26:37.206Z,58.20
2019-02-14T09:31:43.955Z,56.20
2019-02-14T09:36:50.444Z,55.47
2019-02-14T09:41:58.629Z,54.66
2019-02-14T09:47:04.529Z,55.35
2019-02-14T09:52:12.603Z,55.26
2019-02-14T09:57:18.452Z,54.00
2019-02-14T10:02:25.795Z,54.00
2019-02-14T10:07:32.754Z,54.21
2019-02-14T10:12:38.526Z,54.66
2019-02-14T10:17:45.643Z,53.14
2019-02-14T10:22:52.623Z,51.54
2019-02-14T10:27:58.951Z,53.12
2019-02-14T10:33:05.761Z,52.89
2019-02-14T10:38:11.526Z,52.08
2019-02-14T10:43:17.345Z,52.41
2019-02-14T10:48:23.063Z,51.20
2019-02-14T10:53:28.994Z,51.05
2019-02-14T10:58:36.335Z,50.15
2019-02-14T11:03:43.137Z,50.58
2019-02-14T11:08:49.986Z,50.20
2019-02-14T11:13:56.259Z,51.00
2019-02-14T11:19:02.427Z,48.86
2019-02-14T11:24:08.934Z,49.43
2019-02-14T11:29:16.131Z,47.83
2019-02-14T11:34:22.255Z,47.30
2019-02-14T11:39:29.647Z,46.77
2019-02-14T11:44:39.881Z,48.58
2019-02-14T11:49:45.839Z,48.20
2019-02-14T11:54:53.577Z,49.01
2019-02-14T11:59:59.157Z,46.52
2019-02-14T12:05:05.616Z,46.83
2019-02-14T12:10:13.829Z,47.18
2019-02-14T12:15:20.590Z,46.96
2019-02-14T12:20:26.726Z,44.21
2019-02-14T12:25:34.208Z,45.24
2019-02-14T12:30:40.481Z,45.47
2019-02-14T12:35:46.309Z,45.25
2019-02-14T12:40:52.341Z,44.34
2019-02-14T12:45:59.941Z,43.58
2019-02-14T12:51:06.432Z,42.42
2019-02-14T12:56:12.746Z,42.57
2019-02-14T13:01:18.578Z,41.71
2019-02-14T13:06:25.798Z,39.69
2019-02-14T13:11:31.544Z,41.20
2019-02-14T13:16:38.392Z,41.19
2019-02-14T13:21:44.664Z,41.22
2019-02-14T13:26:50.867Z,40.59
2019-02-14T13:31:57.267Z,40.38
2019-02-14T13:37:03.324Z,41.04
2019-02-14T13:42:09.854Z,40.05
2019-02-14T13:47:16.524Z,39.27
2019-02-14T13:52:25.019Z,39.02
2019-02-14T13:57:31.258Z,38.82
2019-02-14T14:02:36.869Z,39.68
2019-02-14T14:07:44.643Z,39.48
2019-02-14T14:12:50.733Z,38.91
2019-02-14T14:17:56.689Z,38.80
2019-02-14T14:23:03.955Z,38.45
2019-02-14T14:28:09.702Z,37.91
2019-02-14T14:33:16.981Z,38.75
2019-02-14T14:38:24.345Z,39.41
2019-02-14T14:43:32.418Z,40.19
2019-02-14T14:48:40.401Z,38.27
2019-02-14T14:53:47.356Z,38.33
2019-02-14T14:58:54.328Z,37.88
2019-02-14T15:04:01.239Z,39.45
2019-02-14T15:09:07.667Z,37.75
2019-02-14T15:14:13.723Z,37.66
2019-02-14T15:19:21.002Z,37.91
2019-02-14T15:24:27.443Z,38.29
2019-02-14T15:29:34.694Z,37.52
2019-02-14T15:34:43.949Z,38.48
2019-02-14T15:39:50.046Z,37.64
2019-02-14T15:44:55.949Z,37.31
2019-02-14T15:50:05.608Z,38.13
2019-02-14T15:55:10.695Z,37.60
2019-02-14T16:00:17.678Z,38.66
2019-02-14T16:05:23.994Z,37.75
2019-02-14T16:10:32.465Z,37.17
2019-02-14T16:15:40.921Z,37.79
2019-02-14T16:20:46.742Z,38.29
2019-02-14T16:25:54.056Z,39.19
2019-02-14T16:31:00.635Z,38.91
2019-02-14T16:36:08.710Z,39.49
2019-02-14T16:41:14.326Z,40.30
2019-02-14T16:46:21.158Z,40.36
2019-02-14T16:51:27.176Z,40.41
2019-02-14T16:56:38.270Z,40.68
2019-02-14T17:01:45.698Z,41.16
2019-02-14T17:06:51.617Z,41.58
2019-02-14T17:11:57.677Z,41.65
2019-02-14T17:17:06.835Z,42.34
2019-02-14T17:22:13.053Z,42.13
2019-02-14T17:27:19.889Z,42.32
2019-02-14T17:32:27.047Z,43.06
2019-02-14T17:37:32.725Z,42.88
2019-02-14T17:42:39.157Z,42.38
2019-02-14T17:47:45.072Z,42.78
2019-02-14T17:52:51.015Z,43.57
2019-02-14T17:57:58.380Z,43.82
2019-02-14T18:03:06.154Z,43.41
2019-02-14T18:08:11.769Z,44.12
2019-02-14T18:13:17.798Z,43.84
2019-02-14T18:18:24.336Z,44.00
2019-02-14T18:23:30.893Z,44.25
2019-02-14T18:28:37.271Z,43.96
2019-02-14T18:33:43.007Z,44.05
2019-02-14T18:38:50.296Z,44.57
2019-02-14T18:43:56.215Z,44.28
2019-02-14T18:49:02.869Z,45.51
2019-02-14T18:54:10.385Z,45.55
2019-02-14T18:59:16.421Z,45.63
2019-02-14T19:04:22.278Z,45.71
2019-02-14T19:09:28.153Z,45.67
2019-02-14T19:14:33.837Z,46.14
2019-02-14T19:19:40.683Z,46.88
2019-02-14T19:24:48.043Z,47.07
2019-02-14T19:29:55.469Z,46.88
2019-02-14T19:35:02.115Z,46.78
2019-02-14T19:40:09.377Z,46.80
2019-02-14T19:45:16.488Z,47.54
2019-02-14T19:50:23.040Z,47.20
2019-02-14T19:55:29.634Z,47.43
2019-02-14T20:00:35.963Z,47.58
2019-02-14T20:05:42.615Z,47.90
2019-02-14T20:10:49.590Z,48.18
2019-02-14T20:15:55.337Z,48.44
2019-02-14T20:21:01.242Z,48.58
2019-02-14T20:26:07.044Z,48.78
2019-02-14T20:31:14.624Z,48.34
2019-02-14T20:36:23.356Z,48.66
2019-02-14T20:46:47.229Z,47.44
2019-02-14T20:51:53.493Z,47.38
2019-02-14T20:57:00.369Z,47.57
2019-02-14T21:02:06.450Z,47.76
2019-02-14T21:07:13.117Z,47.22
2019-02-14T21:12:19.952Z,46.44
2019-02-14T21:17:27.639Z,46.90
2019-02-14T21:22:33.572Z,46.45
2019-02-14T21:27:39.205Z,46.82
2019-02-14T21:32:45.833Z,46.91
2019-02-14T21:37:52.952Z,47.86
2019-02-14T21:42:58.521Z,49.27
2019-02-14T21:48:06.481Z,49.27
2019-02-14T21:53:13.160Z,49.39
2019-02-14T21:58:18.818Z,49.71
2019-02-14T22:03:25.595Z,48.90
2019-02-14T22:08:31.288Z,48.80
2019-02-14T22:13:37.214Z,48.80
2019-02-14T22:18:43.587Z,48.60
2019-02-14T22:23:49.530Z,48.99
2019-02-14T22:28:55.431Z,48.65
2019-02-14T22:34:01.318Z,49.72
2019-02-14T22:39:07.608Z,47.55
2019-02-14T22:44:15.151Z,47.24
2019-02-14T22:49:20.837Z,47.21
2019-02-14T22:54:26.415Z,47.18
2019-02-14T22:59:32.429Z,47.62
2019-02-14T23:04:38.183Z,47.66
2019-02-14T23:09:43.859Z,47.65
2019-02-14T23:14:51.235Z,46.96
2019-02-14T23:19:57.839Z,46.99
2019-02-14T23:25:03.801Z,47.07
2019-02-14T23:30:12.624Z,46.41
2019-02-14T23:35:19.032Z,46.66
2019-02-14T23:40:24.959Z,47.22
2019-02-14T23:45:31.047Z,47.59
2019-02-14T23:50:36.783Z,47.68
2019-02-14T23:55:43.059Z,47.44
